M I D A S
Marine Information and Data Acquisition System
Tripno 1005 of the Zeeleeuw from 2005-09-08 06:19:00 to 2005-09-08 12:46:35
Back to CruiseResearch ActivitiesStationsMapUnderway DataData graphs

EquipmentUnitsComment
TimeDGPSUTC
LatitudeDGPSDM.mWGS84
LongitudeDGPSDM.mWGS84
HeadingGyrodeg 
SOGDGPSknotsSpeed over ground
COGDGPSdegCourse over ground
DepthEcho soundermeters200 kHz
Missing or incorrect values are displayed as -999
Navigation data collected by the RV Zeeleeuw from 2005-09-08 06:14:50 to 2005-09-08 13:52:24
                                                                                    Next 1000 lines
Time Latitude Longitude Heading SOG COG Depth
2005-09-08 06:15:00 51°13.597 2°56.09 135.7 0.2 236 8.1
2005-09-08 06:15:05 51°13.597 2°56.09 136.8 0.2 230 8.3
2005-09-08 06:15:10 51°13.597 2°56.089 138 0.2 225 8.3
2005-09-08 06:15:15 51°13.597 2°56.089 139 0.2 205 8.5
2005-09-08 06:15:20 51°13.597 2°56.089 139.9 0.2 205 8.7
2005-09-08 06:15:25 51°13.596 2°56.089 140.6 0.3 158 8.8
2005-09-08 06:15:30 51°13.596 2°56.09 141.2 0.6 147 8.9
2005-09-08 06:15:36 51°13.594 2°56.091 141.7 0.9 145 9.1
2005-09-08 06:15:40 51°13.593 2°56.093 141.9 1.2 140 9.3
2005-09-08 06:15:45 51°13.592 2°56.095 142.1 1.5 140 8.6
2005-09-08 06:15:50 51°13.59 2°56.098 142.2 1.6 140 8.2
2005-09-08 06:15:54 51°13.588 2°56.1 142 1.9 138 9.1
2005-09-08 06:16:01 51°13.585 2°56.105 141.2 2.1 137 9.6
2005-09-08 06:16:06 51°13.583 2°56.108 140 2.3 136 10
2005-09-08 06:16:10 51°13.581 2°56.112 138.7 2.5 134 10.1
2005-09-08 06:16:15 51°13.578 2°56.117 136.5 2.8 131 10.2
2005-09-08 06:16:20 51°13.576 2°56.122 134.2 2.8 131 10.2
2005-09-08 06:16:25 51°13.574 2°56.127 131.8 2.8 127 10.4
2005-09-08 06:16:30 51°13.571 2°56.132 129.4 2.8 126 10.1
2005-09-08 06:16:36 51°13.569 2°56.137 127.5 2.7 124 10.1
2005-09-08 06:16:40 51°13.567 2°56.142 126 2.7 123 10.1
2005-09-08 06:16:46 51°13.565 2°56.147 124.6 2.7 122 10
2005-09-08 06:16:50 51°13.563 2°56.152 123.2 2.7 122 10.1
2005-09-08 06:16:56 51°13.56 2°56.159 122.6 2.7 122 10.3
2005-09-08 06:17:00 51°13.557 2°56.164 125.3 2.7 122 10.4
2005-09-08 06:17:05 51°13.554 2°56.169 130.2 3.3 133 10.3
2005-09-08 06:17:10 51°13.551 2°56.174 135.8 3.3 139 10.4
2005-09-08 06:17:15 51°13.547 2°56.178 141.4 3.3 140 10.5
2005-09-08 06:17:20 51°13.543 2°56.181 146.6 3.1 148 10.5
2005-09-08 06:17:25 51°13.54 2°56.184 151.3 2.8 152 10.6
2005-09-08 06:17:30 51°13.537 2°56.186 154.5 2.4 152 10.5
2005-09-08 06:17:35 51°13.535 2°56.188 157 2.2 152 10.6
2005-09-08 06:17:41 51°13.533 2°56.189 160.7 1.5 161 10.5
2005-09-08 06:17:45 51°13.533 2°56.189 164.6 0.5 167 10.4
2005-09-08 06:17:50 51°13.533 2°56.189 167.6 0.5 167 10.4
2005-09-08 06:17:55 51°13.534 2°56.189 172 0.7 354 10.4
2005-09-08 06:18:00 51°13.536 2°56.189 175.2 0.9 353 10.5
2005-09-08 06:18:05 51°13.539 2°56.189 177.7 1.4 359 10.6
2005-09-08 06:18:10 51°13.541 2°56.188 179.5 1.6 357 -999
2005-09-08 06:18:16 51°13.543 2°56.188 180.6 1.6 357 -999
2005-09-08 06:18:20 51°13.544 2°56.188 180.9 0.9 359 -999
2005-09-08 06:18:26 51°13.544 2°56.188 181.9 0.2 358 -999
2005-09-08 06:18:31 51°13.543 2°56.188 184.2 0.3 186 -999
2005-09-08 06:18:36 51°13.541 2°56.187 187.9 0.3 186 -999
2005-09-08 06:18:40 51°13.539 2°56.187 192.5 1.3 193 -999
2005-09-08 06:18:46 51°13.537 2°56.185 197.9 1.3 193 -999
2005-09-08 06:18:50 51°13.536 2°56.184 202.9 1.3 206 -999
2005-09-08 06:18:56 51°13.534 2°56.184 205.9 1.3 206 -999
2005-09-08 06:19:00 51°13.534 2°56.183 208.6 0.8 199 -999
2005-09-08 06:19:06 51°13.533 2°56.184 211.2 0.3 198 -999
2005-09-08 06:19:10 51°13.534 2°56.184 213.3 0.4 21 -999
2005-09-08 06:19:15 51°13.535 2°56.185 215 0.4 21 -999
2005-09-08 06:19:20 51°13.536 2°56.186 215.9 0.4 21 -999
2005-09-08 06:19:26 51°13.537 2°56.188 217 1.1 39 -999
2005-09-08 06:19:30 51°13.538 2°56.19 217.8 1.5 33 4.9
2005-09-08 06:19:36 51°13.54 2°56.192 218.4 1.5 33 -999
2005-09-08 06:19:41 51°13.542 2°56.195 219.2 1.5 33 -999
2005-09-08 06:19:46 51°13.544 2°56.197 220.3 1.8 37 -999
2005-09-08 06:19:51 51°13.546 2°56.199 220.9 1.6 34 -999
2005-09-08 06:19:56 51°13.548 2°56.201 221.2 1.6 34 -999
2005-09-08 06:20:00 51°13.548 2°56.201 221.9 0.8 38 -999
2005-09-08 06:20:06 51°13.548 2°56.2 223.8 0.1 1 -999
2005-09-08 06:20:11 51°13.548 2°56.199 226.5 0.1 1 -999
2005-09-08 06:20:16 51°13.548 2°56.197 231.5 0.8 240 -999
2005-09-08 06:20:21 51°13.547 2°56.195 236.1 1.2 243 -999
2005-09-08 06:20:26 51°13.546 2°56.192 241.5 1.3 244 -999
2005-09-08 06:20:30 51°13.545 2°56.188 245.9 1.9 251 4.9
2005-09-08 06:20:36 51°13.544 2°56.181 252.9 2.3 253 -999
2005-09-08 06:20:40 51°13.544 2°56.176 258.4 2.5 258 10.3
2005-09-08 06:20:45 51°13.544 2°56.169 263.9 2.8 263 5
2005-09-08 06:20:50 51°13.544 2°56.162 270.8 3.4 274 10.3
2005-09-08 06:20:55 51°13.546 2°56.153 278.1 3.8 280 10.2
2005-09-08 06:21:01 51°13.548 2°56.143 284.9 4.2 290 10.2
2005-09-08 06:21:06 51°13.552 2°56.134 294.1 4.6 296 10.1
2005-09-08 06:21:10 51°13.555 2°56.126 302.8 5.1 303 10.2
2005-09-08 06:21:15 51°13.56 2°56.115 307 5.6 302 10.1
2005-09-08 06:21:20 51°13.564 2°56.103 307.3 6 303 10.1
2005-09-08 06:21:24 51°13.568 2°56.094 307.5 6.4 303 10.1
2005-09-08 06:21:30 51°13.574 2°56.08 307.8 6.7 304 10.1
2005-09-08 06:21:35 51°13.58 2°56.066 307.8 7 303 10
2005-09-08 06:21:40 51°13.586 2°56.053 307.8 7.3 304 10
2005-09-08 06:21:46 51°13.592 2°56.037 307.8 7.3 304 9.9
2005-09-08 06:21:50 51°13.597 2°56.026 308.1 7.3 304 9.8
2005-09-08 06:21:56 51°13.605 2°56.009 308.4 7.9 304 9.8
2005-09-08 06:22:00 51°13.61 2°55.995 308.4 8 304 9.7
2005-09-08 06:22:05 51°13.616 2°55.98 308.4 8.2 304 9.7
2005-09-08 06:22:10 51°13.623 2°55.964 308.1 8.3 303 9.6
2005-09-08 06:22:15 51°13.629 2°55.949 307.6 8.3 303 9.7
2005-09-08 06:22:20 51°13.635 2°55.934 307.5 8.3 304 9.5
2005-09-08 06:22:25 51°13.641 2°55.921 307.7 8.2 304 9.5
2005-09-08 06:22:30 51°13.647 2°55.906 308.3 8.1 304 9.5
2005-09-08 06:22:36 51°13.655 2°55.888 308.4 8.1 304 9.5
2005-09-08 06:22:40 51°13.661 2°55.875 308.4 8.1 304 9.5
2005-09-08 06:22:44 51°13.666 2°55.863 308.8 8 305 9.4
2005-09-08 06:22:50 51°13.673 2°55.848 309.5 8 306 9.4
2005-09-08 06:22:55 51°13.68 2°55.832 309.7 8 306 9.1
2005-09-08 06:23:00 51°13.687 2°55.818 310.1 8 306 9.1
2005-09-08 06:23:05 51°13.693 2°55.805 311 8 308 10.1
2005-09-08 06:23:10 51°13.7 2°55.791 312.1 8 309 11.6
2005-09-08 06:23:15 51°13.708 2°55.777 313.5 8 311 12.7
2005-09-08 06:23:20 51°13.715 2°55.764 314.5 8 311 12.7
2005-09-08 06:23:25 51°13.723 2°55.751 316.4 8 314 13
2005-09-08 06:23:30 51°13.73 2°55.74 318.5 8 315 11.1
2005-09-08 06:23:35 51°13.739 2°55.727 320.8 8 318 10
2005-09-08 06:23:40 51°13.748 2°55.715 322.3 8 318 9.7
2005-09-08 06:23:46 51°13.757 2°55.703 323.6 7.9 320 9.8
2005-09-08 06:23:50 51°13.765 2°55.693 325.1 7.9 321 10
2005-09-08 06:23:55 51°13.774 2°55.683 326.7 7.9 324 9.5
2005-09-08 06:24:00 51°13.783 2°55.673 328.1 7.9 326 10.1
2005-09-08 06:24:05 51°13.792 2°55.664 330.2 8 327 10
2005-09-08 06:24:10 51°13.802 2°55.654 332.2 8.1 329 10.5
2005-09-08 06:24:15 51°13.812 2°55.646 333.1 8.2 330 10.6
2005-09-08 06:24:20 51°13.822 2°55.637 334.2 8.2 330 10.8
2005-09-08 06:24:25 51°13.831 2°55.629 336.5 8.4 334 10.6
2005-09-08 06:24:30 51°13.842 2°55.621 337.7 8.4 333 10.4
2005-09-08 06:24:36 51°13.855 2°55.611 338.2 8.5 334 10.5
2005-09-08 06:24:40 51°13.864 2°55.604 338.9 8.6 335 10.3
2005-09-08 06:24:44 51°13.873 2°55.597 339.6 8.7 334 10.4
2005-09-08 06:24:50 51°13.886 2°55.587 339.4 8.7 334 10
2005-09-08 06:24:55 51°13.897 2°55.579 339.3 8.8 335 10.2
2005-09-08 06:25:00 51°13.908 2°55.571 339.3 8.8 335 10
2005-09-08 06:25:05 51°13.918 2°55.563 339.5 8.8 336 10.3
2005-09-08 06:25:10 51°13.929 2°55.556 340.2 8.9 336 10.5
2005-09-08 06:25:15 51°13.942 2°55.547 340.8 8.9 336 10.3
2005-09-08 06:25:21 51°13.954 2°55.537 340.8 8.9 336 10.2
2005-09-08 06:25:26 51°13.966 2°55.529 340.8 8.9 336 10.2
2005-09-08 06:25:30 51°13.977 2°55.52 341 8.9 336 10.5
2005-09-08 06:25:35 51°13.989 2°55.511 340.9 8.9 335 10.4
2005-09-08 06:25:40 51°14 2°55.503 340.7 8.9 335 11.5
2005-09-08 06:25:44 51°14.009 2°55.496 341.1 8.9 336 11.7
2005-09-08 06:25:50 51°14.022 2°55.488 341.4 9 337 11.5
2005-09-08 06:25:55 51°14.034 2°55.48 341.6 9 336 10.8
2005-09-08 06:26:00 51°14.045 2°55.473 341.5 9 337 10
2005-09-08 06:26:05 51°14.055 2°55.466 341.4 9 337 10.3
2005-09-08 06:26:10 51°14.066 2°55.459 341.4 9 337 10.9
2005-09-08 06:26:15 51°14.078 2°55.45 341.4 9 336 10.8
2005-09-08 06:26:20 51°14.09 2°55.443 341.3 9 336 10
2005-09-08 06:26:24 51°14.099 2°55.436 341.3 9 336 10.5
2005-09-08 06:26:30 51°14.112 2°55.426 340.9 9 336 10.9
2005-09-08 06:26:36 51°14.125 2°55.416 340 9.1 335 10.8
2005-09-08 06:26:40 51°14.135 2°55.408 339.1 9.1 335 11.1
2005-09-08 06:26:44 51°14.144 2°55.4 338.1 9.3 331 11.6
2005-09-08 06:26:50 51°14.156 2°55.389 336 9.3 330 11
2005-09-08 06:26:55 51°14.168 2°55.376 334 9.3 327 11
2005-09-08 06:27:00 51°14.179 2°55.364 332.4 9.3 327 11
2005-09-08 06:27:05 51°14.188 2°55.353 329.8 9.4 323 11.6
2005-09-08 06:27:10 51°14.199 2°55.34 327.5 9.4 321 11
2005-09-08 06:27:15 51°14.209 2°55.324 325.2 9.4 319 11.2
2005-09-08 06:27:20 51°14.219 2°55.31 322.9 9.4 319 11.1
2005-09-08 06:27:24 51°14.226 2°55.297 320.8 9.4 319 11.6
2005-09-08 06:27:30 51°14.236 2°55.28 318.8 9.5 313 11.6
2005-09-08 06:27:35 51°14.245 2°55.262 316.4 9.5 310 11.5
2005-09-08 06:27:40 51°14.253 2°55.246 314.6 9.5 309 11.2
2005-09-08 06:27:44 51°14.26 2°55.232 313.7 9.7 309 10.9
2005-09-08 06:27:50 51°14.27 2°55.211 313 9.7 309 11
2005-09-08 06:27:55 51°14.278 2°55.194 312.5 9.9 308 10.5
2005-09-08 06:28:00 51°14.287 2°55.176 312.8 10 307 11.1
2005-09-08 06:28:06 51°14.296 2°55.156 312.3 10 307 10.5
2005-09-08 06:28:10 51°14.303 2°55.142 312 10.1 307 10.7
2005-09-08 06:28:15 51°14.312 2°55.122 312 10.2 306 11
2005-09-08 06:28:20 51°14.32 2°55.103 311.5 10.3 306 10.8
2005-09-08 06:28:26 51°14.33 2°55.083 311.5 10.3 306 10.8
2005-09-08 06:28:30 51°14.337 2°55.068 311.5 10.5 307 10.7
2005-09-08 06:28:34 51°14.345 2°55.051 312.1 10.6 307 10.9
2005-09-08 06:28:40 51°14.356 2°55.029 312.6 10.6 307 10.1
2005-09-08 06:28:44 51°14.363 2°55.014 313.5 10.7 309 10.2
2005-09-08 06:28:50 51°14.373 2°54.994 314.4 10.8 309 10.1
2005-09-08 06:28:54 51°14.381 2°54.979 315 10.9 309 10.2
2005-09-08 06:29:00 51°14.394 2°54.955 315.6 10.9 309 10.3
2005-09-08 06:29:06 51°14.406 2°54.935 317.7 10.9 309 10.6
2005-09-08 06:29:10 51°14.416 2°54.921 320.6 11.5 315 10.6
2005-09-08 06:29:16 51°14.43 2°54.9 323.2 11.8 318 10.7
2005-09-08 06:29:20 51°14.442 2°54.885 325.5 12 320 10.8
2005-09-08 06:29:24 51°14.453 2°54.872 327.3 12 320 10.7
2005-09-08 06:29:30 51°14.468 2°54.854 329.7 12.4 324 10.6
2005-09-08 06:29:36 51°14.485 2°54.835 332 12.5 324 10.5
2005-09-08 06:29:40 51°14.498 2°54.82 332.9 12.6 324 10.3
2005-09-08 06:29:44 51°14.509 2°54.807 333.1 12.7 325 10.2
2005-09-08 06:29:50 51°14.527 2°54.788 333.8 12.7 325 10.2
2005-09-08 06:29:55 51°14.542 2°54.772 334.7 12.9 326 10.1
2005-09-08 06:30:00 51°14.557 2°54.756 335.1 12.9 327 10.1
2005-09-08 06:30:06 51°14.574 2°54.739 335.6 12.9 327 10
2005-09-08 06:30:10 51°14.586 2°54.728 336.4 13 329 9.9
2005-09-08 06:30:16 51°14.605 2°54.71 338 13 330 9.9
2005-09-08 06:30:20 51°14.619 2°54.698 339.1 13 331 9.8
2005-09-08 06:30:26 51°14.636 2°54.682 340.2 13 331 9.7
2005-09-08 06:30:30 51°14.649 2°54.671 340.9 13.1 332 9.8
2005-09-08 06:30:35 51°14.667 2°54.657 341.4 13.1 332 9.7
2005-09-08 06:30:40 51°14.683 2°54.644 341.7 13.1 333 9.8
2005-09-08 06:30:46 51°14.701 2°54.629 341.9 13.1 333 9.7
2005-09-08 06:30:50 51°14.715 2°54.617 341.9 13.1 333 9.7
2005-09-08 06:30:55 51°14.731 2°54.603 341.9 13.1 332 9.7
2005-09-08 06:31:00 51°14.747 2°54.589 341.5 13.2 332 9.6
2005-09-08 06:31:05 51°14.762 2°54.576 341.1 13.2 332 9.6
2005-09-08 06:31:10 51°14.779 2°54.561 340.7 13.2 332 9.5
2005-09-08 06:31:15 51°14.795 2°54.547 340.5 13.2 331 9.4
2005-09-08 06:31:20 51°14.811 2°54.534 340.4 13.2 332 9.4
2005-09-08 06:31:26 51°14.829 2°54.518 340.4 13.2 331 9.3
2005-09-08 06:31:30 51°14.844 2°54.506 340.4 13.1 332 9.3
2005-09-08 06:31:36 51°14.862 2°54.491 340.4 13.2 332 9.3
2005-09-08 06:31:40 51°14.876 2°54.479 340.4 13.2 332 9.2
2005-09-08 06:31:46 51°14.894 2°54.464 340.5 13.2 332 9.2
2005-09-08 06:31:50 51°14.907 2°54.453 340.8 13.1 333 9.1
2005-09-08 06:31:56 51°14.927 2°54.438 341 13.1 333 9
2005-09-08 06:32:00 51°14.941 2°54.426 341.2 13.1 333 9
2005-09-08 06:32:05 51°14.956 2°54.414 341.1 13.2 333 9
2005-09-08 06:32:10 51°14.973 2°54.399 340.8 13.2 332 8.9
2005-09-08 06:32:15 51°14.989 2°54.385 340.4 13.1 332 8.8
2005-09-08 06:32:21 51°15.007 2°54.369 339.8 13.1 332 8.8
2005-09-08 06:32:26 51°15.023 2°54.356 339.4 13.1 331 8.7
2005-09-08 06:32:30 51°15.037 2°54.342 339 13.1 331 8.7
2005-09-08 06:32:35 51°15.053 2°54.328 338.6 13.2 331 8.7
2005-09-08 06:32:40 51°15.069 2°54.314 338.3 13.2 331 8.7
2005-09-08 06:32:46 51°15.087 2°54.298 338.2 13.2 331 8.7
2005-09-08 06:32:50 51°15.1 2°54.287 338.4 13.3 331 8.7
2005-09-08 06:32:55 51°15.117 2°54.271 338.8 13.4 332 8.8
2005-09-08 06:33:00 51°15.134 2°54.258 339.2 13.4 332 8.8
2005-09-08 06:33:05 51°15.149 2°54.246 339.9 13.4 333 8.8
2005-09-08 06:33:10 51°15.166 2°54.233 340.9 13.5 334 8.9
2005-09-08 06:33:15 51°15.184 2°54.219 341.2 13.5 334 8.9
2005-09-08 06:33:20 51°15.201 2°54.205 341.7 13.5 334 9
2005-09-08 06:33:24 51°15.215 2°54.194 341.6 13.5 333 9
2005-09-08 06:33:30 51°15.235 2°54.177 340.8 13.6 332 9.1
2005-09-08 06:33:36 51°15.253 2°54.161 339.7 13.6 331 9.2
2005-09-08 06:33:40 51°15.267 2°54.147 338.5 13.6 331 9.2
2005-09-08 06:33:44 51°15.28 2°54.134 337.4 13.6 329 9.2
2005-09-08 06:33:50 51°15.298 2°54.117 336.4 13.6 328 9.4
2005-09-08 06:33:55 51°15.315 2°54.099 335.8 13.6 328 9.4
2005-09-08 06:34:00 51°15.331 2°54.083 335.8 13.6 328 9.5
2005-09-08 06:34:06 51°15.349 2°54.066 335.7 13.6 328 9.5
2005-09-08 06:34:10 51°15.363 2°54.051 336 13.6 329 9.6
2005-09-08 06:34:15 51°15.379 2°54.036 336.6 13.6 329 9.7
2005-09-08 06:34:20 51°15.396 2°54.021 337.3 13.6 329 9.7
2005-09-08 06:34:26 51°15.414 2°54.005 338 13.5 330 9.8
2005-09-08 06:34:30 51°15.429 2°53.992 338.4 13.5 330 9.9
2005-09-08 06:34:35 51°15.445 2°53.978 338.7 13.5 331 9.9
2005-09-08 06:34:40 51°15.461 2°53.963 338.9 13.5 331 10
2005-09-08 06:34:45 51°15.476 2°53.949 338.6 13.5 330 10.1
2005-09-08 06:34:50 51°15.492 2°53.935 338.2 13.5 330 10.2
2005-09-08 06:34:55 51°15.51 2°53.919 337.8 13.5 329 10.2
2005-09-08 06:35:00 51°15.526 2°53.904 337.6 13.5 329 10.3
2005-09-08 06:35:05 51°15.542 2°53.888 337.3 13.5 329 10.4
2005-09-08 06:35:10 51°15.556 2°53.874 337.1 13.5 329 10.4
2005-09-08 06:35:15 51°15.574 2°53.857 337 13.4 330 10.5
2005-09-08 06:35:20 51°15.59 2°53.843 337.6 13.4 330 10.6
2005-09-08 06:35:24 51°15.603 2°53.831 338.6 13.4 331 10.6
2005-09-08 06:35:30 51°15.621 2°53.816 339 13.4 331 10.7
2005-09-08 06:35:36 51°15.641 2°53.799 339.3 13.4 332 10.7
2005-09-08 06:35:40 51°15.655 2°53.787 339.5 13.4 332 10.8
2005-09-08 06:35:45 51°15.672 2°53.773 339.7 13.4 332 10.9
2005-09-08 06:35:50 51°15.687 2°53.76 339.7 13.4 332 11
2005-09-08 06:35:55 51°15.704 2°53.745 339.6 13.4 332 11
2005-09-08 06:36:00 51°15.721 2°53.73 339.5 13.4 331 11
2005-09-08 06:36:04 51°15.734 2°53.719 339.2 13.4 331 11
2005-09-08 06:36:10 51°15.752 2°53.703 339.1 13.3 331 11.1
2005-09-08 06:36:16 51°15.771 2°53.687 339.1 13.3 332 11.1
2005-09-08 06:36:20 51°15.786 2°53.674 339.1 13.3 332 11.1
2005-09-08 06:36:25 51°15.802 2°53.66 339.3 13.4 332 11.2
2005-09-08 06:36:30 51°15.817 2°53.648 339.6 13.3 332 11.2
2005-09-08 06:36:36 51°15.836 2°53.631 339.6 13.3 332 11.2
2005-09-08 06:36:40 51°15.851 2°53.618 339.5 13.3 332 11.3
2005-09-08 06:36:44 51°15.864 2°53.606 339.1 13.4 331 11.3
2005-09-08 06:36:50 51°15.882 2°53.59 338.7 13.4 331 11.3
2005-09-08 06:36:56 51°15.901 2°53.573 338.7 13.4 331 11.3
2005-09-08 06:37:00 51°15.916 2°53.561 339 13.4 331 11.4
2005-09-08 06:37:06 51°15.934 2°53.545 339.5 13.4 332 11.4
2005-09-08 06:37:10 51°15.947 2°53.534 339.8 13.4 332 11.4
2005-09-08 06:37:16 51°15.967 2°53.518 340.2 13.4 333 11.6
2005-09-08 06:37:20 51°15.982 2°53.506 340.4 13.4 332 11.5
2005-09-08 06:37:26 51°16 2°53.491 340.2 13.5 332 11.6
2005-09-08 06:37:30 51°16.013 2°53.479 339.6 13.4 332 11.7
2005-09-08 06:37:35 51°16.031 2°53.463 339.4 13.5 331 11.6
2005-09-08 06:37:40 51°16.047 2°53.449 339.1 13.5 331 11.8
2005-09-08 06:37:45 51°16.062 2°53.436 339 13.5 332 11.8
2005-09-08 06:37:50 51°16.079 2°53.422 339.1 13.5 332 11.8
2005-09-08 06:37:55 51°16.097 2°53.407 339.4 13.5 332 11.9
2005-09-08 06:38:00 51°16.114 2°53.394 339.6 13.5 332 11.9
2005-09-08 06:38:05 51°16.131 2°53.38 339.9 13.5 332 12
2005-09-08 06:38:10 51°16.148 2°53.366 340.1 13.5 332 12
2005-09-08 06:38:16 51°16.166 2°53.351 339.7 13.6 332 11.9
2005-09-08 06:38:20 51°16.181 2°53.338 339.5 13.6 332 11.9
2005-09-08 06:38:24 51°16.194 2°53.327 339.3 13.6 332 11.9
2005-09-08 06:38:30 51°16.213 2°53.311 338.9 13.6 332 11.9
2005-09-08 06:38:35 51°16.231 2°53.296 338.8 13.6 331 12
2005-09-08 06:38:40 51°16.247 2°53.281 338.7 13.6 332 12
2005-09-08 06:38:44 51°16.26 2°53.27 338.7 13.6 332 12.1
2005-09-08 06:38:50 51°16.279 2°53.254 338.8 13.7 332 12.1
2005-09-08 06:38:55 51°16.297 2°53.238 339 13.7 333 12.1
2005-09-08 06:39:00 51°16.314 2°53.225 339.3 13.7 333 12.1
2005-09-08 06:39:06 51°16.333 2°53.209 339.4 13.7 333 12.1
2005-09-08 06:39:10 51°16.346 2°53.198 339.5 13.7 333 12.2
2005-09-08 06:39:16 51°16.366 2°53.182 339.6 13.7 333 12.1
2005-09-08 06:39:20 51°16.381 2°53.169 339.7 13.7 333 12.1
2005-09-08 06:39:26 51°16.4 2°53.154 339.7 13.7 333 12.1
2005-09-08 06:39:30 51°16.414 2°53.143 339.7 13.7 332 12.1
2005-09-08 06:39:36 51°16.434 2°53.126 339.5 13.7 333 12.1
2005-09-08 06:39:40 51°16.449 2°53.114 339.2 13.7 333 12
2005-09-08 06:39:45 51°16.466 2°53.1 339.2 13.7 333 12
2005-09-08 06:39:50 51°16.481 2°53.087 339.3 13.7 333 12
2005-09-08 06:39:55 51°16.5 2°53.072 339.5 13.7 333 11.9
2005-09-08 06:40:00 51°16.517 2°53.058 339.6 13.7 333 11.9
2005-09-08 06:40:04 51°16.53 2°53.047 339.6 13.7 333 11.8
2005-09-08 06:40:10 51°16.548 2°53.031 339.2 13.7 332 11.8
2005-09-08 06:40:15 51°16.567 2°53.016 338.9 13.7 332 11.7
2005-09-08 06:40:20 51°16.584 2°53.002 338.6 13.7 332 11.6
2005-09-08 06:40:25 51°16.599 2°52.989 338.6 13.7 332 11.6
2005-09-08 06:40:31 51°16.619 2°52.972 338.6 13.7 332 11.5
2005-09-08 06:40:36 51°16.636 2°52.958 338.4 13.6 331 11.4
2005-09-08 06:40:40 51°16.65 2°52.945 338.3 13.6 331 11.5
2005-09-08 06:40:44 51°16.664 2°52.934 338.5 13.6 332 11.2
2005-09-08 06:40:50 51°16.682 2°52.918 338.9 13.6 332 11.2
2005-09-08 06:40:55 51°16.7 2°52.902 339.4 13.6 332 11.1
2005-09-08 06:41:01 51°16.719 2°52.887 339.5 13.6 332 10.9
2005-09-08 06:41:06 51°16.735 2°52.873 339.5 13.6 332 10.8
2005-09-08 06:41:10 51°16.749 2°52.862 339.4 13.6 332 10.6
2005-09-08 06:41:15 51°16.767 2°52.846 339 13.5 332 10.3
2005-09-08 06:41:20 51°16.783 2°52.832 338.9 13.5 332 10
2005-09-08 06:41:25 51°16.798 2°52.819 338.9 13.5 332 9.6
2005-09-08 06:41:30 51°16.815 2°52.806 339.1 13.4 332 9.5
2005-09-08 06:41:35 51°16.833 2°52.791 339.5 13.4 333 9.5
2005-09-08 06:41:40 51°16.85 2°52.778 340 13.4 333 9.4
2005-09-08 06:41:45 51°16.865 2°52.766 340.3 13.4 333 9.3
2005-09-08 06:41:50 51°16.881 2°52.753 340.4 13.4 334 9.4
2005-09-08 06:41:55 51°16.899 2°52.738 340.4 13.5 333 9.4
2005-09-08 06:42:00 51°16.916 2°52.724 340.1 13.5 333 9.4
2005-09-08 06:42:05 51°16.931 2°52.712 339.8 13.5 333 9.6
2005-09-08 06:42:10 51°16.95 2°52.696 339.4 13.5 333 9.7
2005-09-08 06:42:15 51°16.966 2°52.683 338.9 13.6 332 9.8
2005-09-08 06:42:21 51°16.985 2°52.667 338.9 13.7 333 9.9
2005-09-08 06:42:24 51°16.997 2°52.658 338.9 13.7 333 10
2005-09-08 06:42:30 51°17.017 2°52.641 339.2 13.7 333 10.1
2005-09-08 06:42:34 51°17.031 2°52.63 339.5 13.7 333 10
2005-09-08 06:42:40 51°17.051 2°52.614 339.6 13.7 333 9.9
2005-09-08 06:42:45 51°17.066 2°52.602 339.6 13.7 333 9.7
2005-09-08 06:42:50 51°17.085 2°52.588 339.7 13.6 335 9.5
2005-09-08 06:42:55 51°17.102 2°52.576 341.6 13.5 336 9.6
2005-09-08 06:43:00 51°17.12 2°52.565 342.2 13.5 336 9.6
2005-09-08 06:43:05 51°17.135 2°52.555 343.6 13.5 338 9.7
2005-09-08 06:43:10 51°17.153 2°52.544 344.5 13.5 338 9.7
2005-09-08 06:43:15 51°17.172 2°52.532 345.1 13.5 339 9.8
2005-09-08 06:43:21 51°17.191 2°52.52 345.4 13.6 339 9.8
2005-09-08 06:43:25 51°17.207 2°52.511 345.6 13.6 339 9.9
2005-09-08 06:43:30 51°17.225 2°52.5 345.7 13.6 339 9.9
2005-09-08 06:43:35 51°17.242 2°52.488 345.4 13.6 339 10.1
2005-09-08 06:43:40 51°17.26 2°52.477 344.7 13.6 338 10
2005-09-08 06:43:46 51°17.279 2°52.464 344.2 13.6 338 10.2
2005-09-08 06:43:50 51°17.293 2°52.455 343.9 13.6 338 10.3
2005-09-08 06:43:56 51°17.314 2°52.441 343.7 13.6 338 10.2
2005-09-08 06:44:00 51°17.329 2°52.431 343.7 13.6 338 10.3
2005-09-08 06:44:05 51°17.345 2°52.421 344 13.6 338 10.2
2005-09-08 06:44:10 51°17.363 2°52.41 344.1 13.6 338 10.2
2005-09-08 06:44:15 51°17.382 2°52.397 344.1 13.5 337 10.4
2005-09-08 06:44:20 51°17.399 2°52.385 344 13.5 337 10.4
2005-09-08 06:44:25 51°17.414 2°52.374 343.1 13.5 336 10.4
2005-09-08 06:44:31 51°17.435 2°52.359 342.7 13.5 336 10.4
2005-09-08 06:44:35 51°17.45 2°52.348 342.8 13.5 336 10.5
2005-09-08 06:44:40 51°17.467 2°52.336 343 13.5 336 10.4
2005-09-08 06:44:45 51°17.483 2°52.326 343.9 13.5 337 10.4
2005-09-08 06:44:51 51°17.504 2°52.311 344.3 13.5 337 10.5
2005-09-08 06:44:55 51°17.519 2°52.301 344.7 13.5 337 10.4
2005-09-08 06:45:01 51°17.538 2°52.289 344.8 13.5 337 10.5
2005-09-08 06:45:05 51°17.554 2°52.278 344.8 13.5 337 10.4
2005-09-08 06:45:10 51°17.571 2°52.268 345.2 13.5 339 10.5
2005-09-08 06:45:15 51°17.589 2°52.257 346.3 13.5 339 10.4
2005-09-08 06:45:20 51°17.607 2°52.247 346.9 13.5 339 10.5
2005-09-08 06:45:25 51°17.624 2°52.238 347.6 13.5 341 10.4
2005-09-08 06:45:30 51°17.642 2°52.228 348.4 13.5 341 10.5
2005-09-08 06:45:35 51°17.66 2°52.219 348.9 13.5 342 10.3
2005-09-08 06:45:40 51°17.678 2°52.21 349.2 13.5 342 10.3
2005-09-08 06:45:46 51°17.697 2°52.2 349.8 13.4 343 10.3
2005-09-08 06:45:50 51°17.713 2°52.193 350.5 13.4 343 10.5
2005-09-08 06:45:55 51°17.731 2°52.184 350.7 13.4 343 10.5
2005-09-08 06:46:00 51°17.749 2°52.175 351 13.4 343 10.3
2005-09-08 06:46:05 51°17.767 2°52.166 351 13.5 343 10.5
2005-09-08 06:46:10 51°17.784 2°52.157 350.5 13.5 343 10.4
2005-09-08 06:46:16 51°17.804 2°52.147 350.1 13.5 343 10.3
2005-09-08 06:46:20 51°17.82 2°52.139 349.9 13.5 342 10.3
2005-09-08 06:46:26 51°17.84 2°52.129 349.7 13.5 342 10.4
2005-09-08 06:46:30 51°17.856 2°52.12 349.7 13.4 342 10.4
2005-09-08 06:46:36 51°17.875 2°52.111 349.8 13.4 342 10.5
2005-09-08 06:46:40 51°17.891 2°52.103 350.3 13.4 342 10.4
2005-09-08 06:46:45 51°17.909 2°52.094 350.4 13.4 342 10.5
2005-09-08 06:46:50 51°17.925 2°52.087 350.4 13.3 343 10.5
2005-09-08 06:46:55 51°17.944 2°52.077 350.2 13.3 343 10.5
2005-09-08 06:47:00 51°17.962 2°52.068 349.9 13.3 343 10.5
2005-09-08 06:47:05 51°17.979 2°52.059 349.8 13.3 342 10.6
2005-09-08 06:47:10 51°17.995 2°52.051 349.8 13.3 342 10.6
2005-09-08 06:47:16 51°18.016 2°52.04 349.6 13.3 342 10.6
2005-09-08 06:47:20 51°18.032 2°52.032 349.6 13.3 343 10.6
2005-09-08 06:47:24 51°18.046 2°52.025 349.6 13.3 343 10.6
2005-09-08 06:47:30 51°18.065 2°52.015 349.5 13.3 342 10.6
2005-09-08 06:47:35 51°18.084 2°52.005 349.1 13.3 342 10.7
2005-09-08 06:47:41 51°18.104 2°51.995 348.9 13.3 342 10.7
2005-09-08 06:47:45 51°18.12 2°51.987 348.9 13.3 342 10.7
2005-09-08 06:47:50 51°18.135 2°51.979 349.1 13.3 342 10.9
2005-09-08 06:47:55 51°18.155 2°51.969 349.2 13.3 343 10.8
2005-09-08 06:48:00 51°18.172 2°51.96 349.5 13.3 342 10.9
2005-09-08 06:48:06 51°18.192 2°51.95 349.5 13.3 342 11
2005-09-08 06:48:10 51°18.206 2°51.943 349.5 13.3 342 11
2005-09-08 06:48:14 51°18.222 2°51.934 349.4 13.3 342 11.1
2005-09-08 06:48:20 51°18.242 2°51.923 349.2 13.3 342 11.2
2005-09-08 06:48:26 51°18.262 2°51.913 349 13.3 342 11.2
2005-09-08 06:48:30 51°18.276 2°51.905 348.9 13.3 342 11.2
2005-09-08 06:48:36 51°18.297 2°51.894 348.8 13.3 341 11.3
2005-09-08 06:48:40 51°18.312 2°51.885 348.5 13.3 341 11.4
2005-09-08 06:48:46 51°18.332 2°51.875 348.4 13.3 341 11.5
2005-09-08 06:48:50 51°18.346 2°51.868 348.8 13.3 342 11.5
2005-09-08 06:48:55 51°18.365 2°51.858 349 13.3 342 11.6
2005-09-08 06:49:00 51°18.383 2°51.849 349.1 13.3 342 11.7
2005-09-08 06:49:04 51°18.397 2°51.842 349.4 13.3 342 11.8
2005-09-08 06:49:10 51°18.418 2°51.831 349.5 13.3 342 11.9
2005-09-08 06:49:15 51°18.435 2°51.822 349.7 13.3 342 12
2005-09-08 06:49:21 51°18.455 2°51.812 349.7 13.3 342 12.1
2005-09-08 06:49:24 51°18.467 2°51.806 349.7 13.3 342 12.2
2005-09-08 06:49:30 51°18.486 2°51.796 349.6 13.3 342 12.3
2005-09-08 06:49:35 51°18.506 2°51.786 349.3 13.3 342 12.4
2005-09-08 06:49:40 51°18.523 2°51.777 349.2 13.3 342 12.4
2005-09-08 06:49:45 51°18.539 2°51.768 349.1 13.3 342 12.6
2005-09-08 06:49:50 51°18.557 2°51.759 349 13.3 342 12.7
2005-09-08 06:49:56 51°18.577 2°51.748 349 13.3 342 12.8
2005-09-08 06:50:00 51°18.593 2°51.739 349 13.3 341 12.8
2005-09-08 06:50:05 51°18.609 2°51.731 349 13.3 342 13
2005-09-08 06:50:10 51°18.627 2°51.722 349.2 13.3 342 13.1
2005-09-08 06:50:15 51°18.646 2°51.713 349.6 13.3 343 13.1
2005-09-08 06:50:20 51°18.664 2°51.704 349.8 13.3 342 13.2
2005-09-08 06:50:26 51°18.683 2°51.693 349.8 13.3 342 13.4
2005-09-08 06:50:30 51°18.699 2°51.685 349.5 13.3 342 13.5
2005-09-08 06:50:35 51°18.715 2°51.677 349.2 13.3 341 13.5
2005-09-08 06:50:40 51°18.734 2°51.667 349.1 13.3 341 13.7
2005-09-08 06:50:45 51°18.75 2°51.659 349.2 13.3 342 13.6
2005-09-08 06:50:50 51°18.769 2°51.649 349.4 13.3 342 13.8
2005-09-08 06:50:55 51°18.787 2°51.64 349.5 13.4 342 13.9
2005-09-08 06:51:00 51°18.805 2°51.63 349.5 13.4 342 14
2005-09-08 06:51:05 51°18.821 2°51.622 349.1 13.4 342 14
2005-09-08 06:51:10 51°18.838 2°51.613 349.1 13.4 342 14.2
2005-09-08 06:51:16 51°18.859 2°51.602 349 13.3 342 14.2
2005-09-08 06:51:20 51°18.875 2°51.593 349 13.3 342 14.2
2005-09-08 06:51:26 51°18.894 2°51.583 349 13.3 342 14.3
2005-09-08 06:51:30 51°18.908 2°51.576 349.1 13.2 341 14.4
2005-09-08 06:51:35 51°18.927 2°51.565 348.9 13.3 342 14.5
2005-09-08 06:51:40 51°18.945 2°51.556 348.8 13.3 342 14.6
2005-09-08 06:51:45 51°18.96 2°51.547 348.7 13.2 342 14.5
2005-09-08 06:51:50 51°18.978 2°51.539 348.7 13.2 342 14.4
2005-09-08 06:51:56 51°18.999 2°51.528 349.1 13.2 342 14.7
2005-09-08 06:52:00 51°19.014 2°51.521 349.3 13.2 343 15
2005-09-08 06:52:05 51°19.03 2°51.513 349.7 13.1 343 15
2005-09-08 06:52:10 51°19.048 2°51.505 350.3 13.1 344 15.1
2005-09-08 06:52:15 51°19.067 2°51.496 350.7 13.1 344 15.1
2005-09-08 06:52:20 51°19.085 2°51.488 350.9 13.1 344 15.2
2005-09-08 06:52:25 51°19.102 2°51.48 351.1 13.1 344 15.2
2005-09-08 06:52:30 51°19.118 2°51.473 351.3 13.1 344 15.3
2005-09-08 06:52:35 51°19.137 2°51.465 351.4 13.1 344 15.3
2005-09-08 06:52:40 51°19.154 2°51.457 351.6 13.1 344 15.3
2005-09-08 06:52:46 51°19.174 2°51.448 351.4 13.1 344 15.3
2005-09-08 06:52:50 51°19.188 2°51.441 351.2 13.1 344 15.2
2005-09-08 06:52:56 51°19.209 2°51.432 351.1 13.1 344 15.3
2005-09-08 06:53:00 51°19.224 2°51.424 351.2 13.1 344 15.2
2005-09-08 06:53:06 51°19.244 2°51.416 351.2 13.1 344 15.3
2005-09-08 06:53:10 51°19.258 2°51.409 351.2 13.1 344 15.3
2005-09-08 06:53:15 51°19.277 2°51.4 351.2 13.2 344 15.3
2005-09-08 06:53:20 51°19.295 2°51.392 351.3 13.2 344 15.2
2005-09-08 06:53:26 51°19.314 2°51.384 351.6 13.1 345 15.2
2005-09-08 06:53:30 51°19.328 2°51.378 352 13.1 345 15.2
2005-09-08 06:53:35 51°19.347 2°51.369 351.8 13.2 345 15.2
2005-09-08 06:53:40 51°19.365 2°51.362 351.8 13.1 345 15.2
2005-09-08 06:53:46 51°19.385 2°51.353 352 13.1 345 15.2
2005-09-08 06:53:50 51°19.4 2°51.346 352 13.1 345 15.1
2005-09-08 06:53:56 51°19.42 2°51.338 351.6 13.2 345 15.1
2005-09-08 06:54:00 51°19.436 2°51.33 351.5 13.2 344 15.1
2005-09-08 06:54:05 51°19.453 2°51.323 351.2 13.2 344 15.1
2005-09-08 06:54:10 51°19.471 2°51.315 351.1 13.1 344 15
2005-09-08 06:54:15 51°19.488 2°51.307 351.2 13.1 344 15
2005-09-08 06:54:20 51°19.506 2°51.299 351.4 13.1 344 15
2005-09-08 06:54:26 51°19.525 2°51.291 351.8 13.1 344 15
2005-09-08 06:54:30 51°19.539 2°51.285 351.9 13.1 345 15
2005-09-08 06:54:36 51°19.56 2°51.276 351.7 13.2 345 14.9
2005-09-08 06:54:40 51°19.576 2°51.269 351.5 13.2 345 14.8
2005-09-08 06:54:46 51°19.596 2°51.26 351.5 13.2 345 14.8
2005-09-08 06:54:50 51°19.61 2°51.254 351.5 13.2 344 14.8
2005-09-08 06:54:55 51°19.629 2°51.245 351.3 13.3 344 14.7
2005-09-08 06:55:01 51°19.649 2°51.235 351.1 13.3 344 14.5
2005-09-08 06:55:06 51°19.666 2°51.227 350.6 13.3 343 14.5
2005-09-08 06:55:10 51°19.68 2°51.22 350.2 13.3 343 14.3
2005-09-08 06:55:16 51°19.701 2°51.209 350 13.4 343 14.3
2005-09-08 06:55:20 51°19.717 2°51.202 350.3 13.4 343 14.2
2005-09-08 06:55:26 51°19.737 2°51.192 350.7 13.3 344 13.9
2005-09-08 06:55:30 51°19.751 2°51.186 351.1 13.4 344 13.7
2005-09-08 06:55:35 51°19.771 2°51.178 351.6 13.4 345 13.4
2005-09-08 06:55:40 51°19.789 2°51.17 351.9 13.3 344 13
2005-09-08 06:55:46 51°19.808 2°51.161 351.9 13.4 344 12.5
2005-09-08 06:55:50 51°19.822 2°51.154 351.7 13.4 344 12.5
2005-09-08 06:55:56 51°19.844 2°51.144 351.5 13.4 344 12.3
2005-09-08 06:56:00 51°19.86 2°51.137 351.3 13.4 344 12.3
2005-09-08 06:56:05 51°19.878 2°51.129 351.2 13.4 344 12.3
2005-09-08 06:56:10 51°19.894 2°51.121 351.2 13.4 344 11.8
2005-09-08 06:56:15 51°19.913 2°51.112 351 13.5 344 12.7
2005-09-08 06:56:20 51°19.931 2°51.104 350.9 13.5 344 12.9
2005-09-08 06:56:25 51°19.948 2°51.097 351.2 13.5 344 13
2005-09-08 06:56:30 51°19.967 2°51.088 351.5 13.5 344 13.2
2005-09-08 06:56:36 51°19.987 2°51.079 351.5 13.5 344 12.6
2005-09-08 06:56:40 51°20.003 2°51.072 351.5 13.5 344 12.6
2005-09-08 06:56:45 51°20.021 2°51.064 351.6 13.5 344 12.7
2005-09-08 06:56:50 51°20.039 2°51.056 351.4 13.5 344 12.9
2005-09-08 06:56:56 51°20.059 2°51.046 351.3 13.5 344 13
2005-09-08 06:57:00 51°20.075 2°51.039 351.2 13.5 344 13.2
2005-09-08 06:57:05 51°20.091 2°51.031 350.9 13.5 343 13.3
2005-09-08 06:57:10 51°20.109 2°51.022 350.8 13.5 343 13.4
2005-09-08 06:57:15 51°20.129 2°51.013 350.7 13.5 343 13.7
2005-09-08 06:57:21 51°20.148 2°51.003 350.7 13.5 343 14
2005-09-08 06:57:26 51°20.166 2°50.995 350.8 13.5 344 14.1
2005-09-08 06:57:30 51°20.181 2°50.988 350.8 13.5 344 14.1
2005-09-08 06:57:36 51°20.202 2°50.979 351 13.5 344 14.2
2005-09-08 06:57:40 51°20.219 2°50.972 351.2 13.5 344 14.2
2005-09-08 06:57:46 51°20.238 2°50.963 351.5 13.5 344 14.1
2005-09-08 06:57:50 51°20.255 2°50.956 352 13.5 345 14.2
2005-09-08 06:57:55 51°20.272 2°50.948 352 13.5 345 14.4
2005-09-08 06:58:00 51°20.29 2°50.94 351.5 13.5 345 14.1
2005-09-08 06:58:05 51°20.308 2°50.931 351.2 13.4 344 14.3
2005-09-08 06:58:10 51°20.324 2°50.924 351 13.4 344 14.3
2005-09-08 06:58:16 51°20.346 2°50.914 351 13.4 344 14.2
2005-09-08 06:58:20 51°20.362 2°50.907 351.4 13.4 344 14
2005-09-08 06:58:25 51°20.379 2°50.899 351.7 13.4 344 14
2005-09-08 06:58:30 51°20.397 2°50.89 351.5 13.4 344 14.1
2005-09-08 06:58:35 51°20.415 2°50.882 351.2 13.4 344 14.3
2005-09-08 06:58:41 51°20.435 2°50.873 351.3 13.4 344 14.4
2005-09-08 06:58:46 51°20.453 2°50.865 351.3 13.4 344 14.8
2005-09-08 06:58:50 51°20.467 2°50.859 351.4 13.4 344 15.2
2005-09-08 06:58:56 51°20.489 2°50.849 351.8 13.4 344 15.4
2005-09-08 06:59:00 51°20.505 2°50.842 351.9 13.4 344 15.8
2005-09-08 06:59:04 51°20.519 2°50.836 351.9 13.4 344 16.4
2005-09-08 06:59:10 51°20.54 2°50.826 351.8 13.4 344 16.4
2005-09-08 06:59:16 51°20.56 2°50.817 351.5 13.4 344 16.7
2005-09-08 06:59:20 51°20.576 2°50.809 351.4 13.4 344 17.1
2005-09-08 06:59:25 51°20.594 2°50.801 351.2 13.4 344 17.4
2005-09-08 06:59:30 51°20.611 2°50.792 351 13.4 344 17.7
2005-09-08 06:59:35 51°20.629 2°50.784 350.5 13.4 344 18
2005-09-08 06:59:40 51°20.647 2°50.775 350.5 13.4 343 18.4
2005-09-08 06:59:45 51°20.663 2°50.767 350.4 13.4 343 18.5
2005-09-08 06:59:50 51°20.681 2°50.759 350.5 13.4 343 18.8
2005-09-08 06:59:55 51°20.7 2°50.75 350.8 13.4 344 19
2005-09-08 07:00:00 51°20.718 2°50.742 351.2 13.4 344 19.3
2005-09-08 07:00:06 51°20.738 2°50.733 351.3 13.4 344 19.5
2005-09-08 07:00:10 51°20.754 2°50.725 351.2 13.4 344 19.7
2005-09-08 07:00:15 51°20.772 2°50.717 351.2 13.4 344 20
2005-09-08 07:00:20 51°20.789 2°50.709 351.2 13.4 344 20.4
2005-09-08 07:00:26 51°20.809 2°50.699 351.1 13.4 344 20.5
2005-09-08 07:00:30 51°20.825 2°50.692 351.2 13.4 344 20.8
2005-09-08 07:00:36 51°20.845 2°50.683 351.2 13.4 344 21
2005-09-08 07:00:40 51°20.861 2°50.676 351.5 13.4 344 21.1
2005-09-08 07:00:45 51°20.877 2°50.669 351.8 13.5 345 21.4
2005-09-08 07:00:50 51°20.895 2°50.661 352 13.5 345 21.6
2005-09-08 07:00:55 51°20.915 2°50.652 351.7 13.5 344 21.9
2005-09-08 07:01:00 51°20.933 2°50.643 351.5 13.5 344 22
2005-09-08 07:01:05 51°20.951 2°50.635 351.4 13.5 344 22.2
2005-09-08 07:01:10 51°20.967 2°50.628 351.3 13.5 344 22.2
2005-09-08 07:01:16 51°20.989 2°50.618 351.3 13.5 344 22.5
2005-09-08 07:01:20 51°21.005 2°50.61 351.3 13.6 344 22.9
2005-09-08 07:01:26 51°21.025 2°50.601 351.3 13.5 344 22.8
2005-09-08 07:01:30 51°21.041 2°50.594 351.3 13.6 344 22.9
2005-09-08 07:01:36 51°21.061 2°50.585 351.3 13.6 344 23.2
2005-09-08 07:01:40 51°21.078 2°50.578 351.4 13.6 344 23.2
2005-09-08 07:01:46 51°21.098 2°50.569 351.5 13.6 345 23.2
2005-09-08 07:01:50 51°21.114 2°50.562 351.7 13.6 345 23
2005-09-08 07:01:54 51°21.129 2°50.556 351.9 13.6 345 23.2
2005-09-08 07:02:00 51°21.15 2°50.547 351.9 13.6 345 23.3
2005-09-08 07:02:05 51°21.169 2°50.539 351.9 13.6 345 23.1
2005-09-08 07:02:10 51°21.187 2°50.531 351.8 13.6 345 23.3
2005-09-08 07:02:15 51°21.205 2°50.523 351.6 13.6 345 23.2
2005-09-08 07:02:20 51°21.223 2°50.514 351.2 13.6 345 23.2
2005-09-08 07:02:26 51°21.243 2°50.505 351.1 13.7 344 23.3
2005-09-08 07:02:30 51°21.258 2°50.499 350.9 13.7 344 23.3
2005-09-08 07:02:35 51°21.278 2°50.49 350.9 13.7 344 23.2
2005-09-08 07:02:40 51°21.296 2°50.482 351.2 13.7 344 23.3
2005-09-08 07:02:45 51°21.315 2°50.474 351.2 13.7 344 23.1
2005-09-08 07:02:51 51°21.335 2°50.465 351.5 13.7 344 23.3
2005-09-08 07:02:56 51°21.353 2°50.458 351.8 13.6 345 23.4
2005-09-08 07:03:00 51°21.369 2°50.451 351.8 13.6 345 23.3
2005-09-08 07:03:06 51°21.39 2°50.442 351.8 13.7 345 23.3
2005-09-08 07:03:10 51°21.406 2°50.436 351.9 13.7 345 23.2
2005-09-08 07:03:15 51°21.425 2°50.428 351.9 13.7 345 23.2
2005-09-08 07:03:21 51°21.445 2°50.42 351.9 13.7 345 23.1
2005-09-08 07:03:26 51°21.463 2°50.412 352 13.7 346 23
2005-09-08 07:03:30 51°21.478 2°50.406 351.8 13.7 346 23
2005-09-08 07:03:36 51°21.5 2°50.397 351.8 13.7 346 23
2005-09-08 07:03:40 51°21.517 2°50.39 351.6 13.7 346 23
2005-09-08 07:03:45 51°21.535 2°50.382 351.5 13.7 345 22.8
2005-09-08 07:03:50 51°21.554 2°50.375 351.2 13.7 345 22.8
2005-09-08 07:03:55 51°21.572 2°50.367 351 13.7 345 22.7
2005-09-08 07:04:00 51°21.59 2°50.358 350.8 13.7 345 22.7
2005-09-08 07:04:04 51°21.605 2°50.351 350.6 13.7 344 22.7
2005-09-08 07:04:10 51°21.627 2°50.342 350.1 13.6 344 22.8
2005-09-08 07:04:16 51°21.646 2°50.332 350.4 13.6 344 22.6
2005-09-08 07:04:20 51°21.663 2°50.325 350.5 13.6 344 22.7
2005-09-08 07:04:26 51°21.683 2°50.316 350.8 13.6 345 22.7
2005-09-08 07:04:30 51°21.697 2°50.311 351.1 13.6 345 22.6
2005-09-08 07:04:35 51°21.718 2°50.302 351.5 13.6 345 22.7
2005-09-08 07:04:40 51°21.736 2°50.295 351.7 13.6 345 22.7
2005-09-08 07:04:46 51°21.756 2°50.286 351.8 13.6 345 22.7
2005-09-08 07:04:50 51°21.77 2°50.28 351.7 13.6 345 22.5
2005-09-08 07:04:56 51°21.792 2°50.271 351.6 13.6 345 22.5
2005-09-08 07:05:00 51°21.809 2°50.264 351.8 13.6 345 22.5
2005-09-08 07:05:05 51°21.825 2°50.258 351.7 13.6 346 22.3
2005-09-08 07:05:10 51°21.843 2°50.25 352 13.5 345 22.3
2005-09-08 07:05:16 51°21.865 2°50.241 351.7 13.5 345 22.4
2005-09-08 07:05:20 51°21.881 2°50.234 351.7 13.6 345 22.3
2005-09-08 07:05:26 51°21.902 2°50.226 351.6 13.6 346 22.3
2005-09-08 07:05:30 51°21.916 2°50.22 351.7 13.5 346 22.4
2005-09-08 07:05:36 51°21.938 2°50.211 351.4 13.5 346 22.3
2005-09-08 07:05:40 51°21.954 2°50.204 351.6 13.5 346 22.4
2005-09-08 07:05:46 51°21.974 2°50.196 351.5 13.5 346 22.6
2005-09-08 07:05:50 51°21.989 2°50.19 351.5 13.5 345 22.5
2005-09-08 07:05:56 51°22.011 2°50.181 351.5 13.6 346 22.8
2005-09-08 07:06:00 51°22.027 2°50.174 351.5 13.6 346 22.8
2005-09-08 07:06:05 51°22.045 2°50.167 351.6 13.5 346 22.9
2005-09-08 07:06:10 51°22.062 2°50.16 351.3 13.5 346 22.8
2005-09-08 07:06:16 51°22.083 2°50.151 351.8 13.5 346 22.9
2005-09-08 07:06:21 51°22.102 2°50.144 351.8 13.5 346 22.9
2005-09-08 07:06:26 51°22.12 2°50.137 351.6 13.5 346 23
2005-09-08 07:06:30 51°22.136 2°50.13 351.6 13.5 346 23.2
2005-09-08 07:06:35 51°22.155 2°50.123 351.7 13.5 346 23.2
2005-09-08 07:06:40 51°22.173 2°50.116 351.7 13.5 346 23.2
2005-09-08 07:06:46 51°22.193 2°50.108 351.8 13.6 346 23.2
2005-09-08 07:06:50 51°22.209 2°50.102 351.7 13.6 346 23.1
2005-09-08 07:06:56 51°22.229 2°50.093 351.5 13.5 346 23.1
2005-09-08 07:07:00 51°22.246 2°50.087 351.2 13.5 346 23
2005-09-08 07:07:05 51°22.262 2°50.079 351.2 13.5 345 22.8
2005-09-08 07:07:10 51°22.28 2°50.071 350.8 13.5 344 22.6
2005-09-08 07:07:16 51°22.301 2°50.06 349.8 13.5 344 22.9
2005-09-08 07:07:20 51°22.317 2°50.052 349.6 13.5 343 22.7
2005-09-08 07:07:25 51°22.333 2°50.044 349.8 13.4 343 23
2005-09-08 07:07:30 51°22.351 2°50.036 350.4 13.4 343 23
2005-09-08 07:07:36 51°22.373 2°50.027 351 13.4 345 23
2005-09-08 07:07:40 51°22.389 2°50.02 351.2 13.4 344 22.5
2005-09-08 07:07:46 51°22.408 2°50.011 351.6 13.4 344 21.8
2005-09-08 07:07:50 51°22.423 2°50.005 351.6 13.4 345 22.4
2005-09-08 07:07:56 51°22.444 2°49.996 351.4 13.4 345 23.2
2005-09-08 07:08:00 51°22.46 2°49.989 351.2 13.4 345 23.2
2005-09-08 07:08:04 51°22.475 2°49.983 351.2 13.4 345 23.2
2005-09-08 07:08:10 51°22.495 2°49.974 351.2 13.4 345 23.2
2005-09-08 07:08:15 51°22.514 2°49.966 351.4 13.4 345 22.8
2005-09-08 07:08:21 51°22.534 2°49.958 351.5 13.4 345 22.3
2005-09-08 07:08:25 51°22.549 2°49.952 351.8 13.4 345 21
2005-09-08 07:08:30 51°22.566 2°49.944 351.9 13.4 345 20.6
2005-09-08 07:08:36 51°22.588 2°49.935 351.5 13.4 345 19.6
2005-09-08 07:08:40 51°22.604 2°49.927 351.3 13.4 345 18.2
2005-09-08 07:08:46 51°22.624 2°49.92 350.9 13.4 345 21.2
2005-09-08 07:08:50 51°22.64 2°49.913 351.3 13.4 345 21.8
2005-09-08 07:08:55 51°22.658 2°49.906 351.6 13.4 345 20.9
2005-09-08 07:09:00 51°22.676 2°49.898 351.8 13.4 346 20.1
2005-09-08 07:09:06 51°22.695 2°49.89 351.6 13.3 346 19.3
2005-09-08 07:09:10 51°22.71 2°49.884 351.1 13.4 345 18.3
2005-09-08 07:09:16 51°22.731 2°49.875 350.7 13.4 345 17.7
2005-09-08 07:09:20 51°22.747 2°49.867 350.5 13.4 345 16.8
2005-09-08 07:09:26 51°22.767 2°49.859 350.7 13.4 345 15.7
2005-09-08 07:09:30 51°22.783 2°49.852 350.9 13.4 345 14.5
2005-09-08 07:09:36 51°22.803 2°49.844 351.2 13.4 345 16.5
2005-09-08 07:09:40 51°22.819 2°49.837 351.3 13.3 345 16.8
2005-09-08 07:09:45 51°22.836 2°49.829 351 13.3 345 16.2
2005-09-08 07:09:50 51°22.854 2°49.82 350.6 13.3 345 14.4
2005-09-08 07:09:56 51°22.874 2°49.812 350.2 13.3 345 13.2
2005-09-08 07:10:00 51°22.89 2°49.805 350.3 13.3 345 14.8
2005-09-08 07:10:05 51°22.907 2°49.797 350.3 13.2 344 15.6
2005-09-08 07:10:10 51°22.923 2°49.79 350.3 13.4 345 16
2005-09-08 07:10:16 51°22.945 2°49.781 350.9 13.4 345 16.3
2005-09-08 07:10:20 51°22.961 2°49.774 351.5 13.4 346 16.8
2005-09-08 07:10:26 51°22.981 2°49.766 351.4 13.3 345 16.3
2005-09-08 07:10:30 51°22.995 2°49.76 351.3 13.3 345 13.6
2005-09-08 07:10:35 51°23.015 2°49.751 351.1 13.4 345 15.9
2005-09-08 07:10:40 51°23.033 2°49.744 350.7 13.4 345 16.8
2005-09-08 07:10:46 51°23.053 2°49.736 350.9 13.4 345 16.6
2005-09-08 07:10:50 51°23.067 2°49.73 351.3 13.4 345 16
2005-09-08 07:10:56 51°23.089 2°49.721 351.6 13.4 345 16.3
2005-09-08 07:11:01 51°23.107 2°49.713 351.4 13.4 345 14.8
2005-09-08 07:11:06 51°23.124 2°49.705 351.3 13.4 345 14.8
2005-09-08 07:11:10 51°23.14 2°49.698 350.8 13.4 345 16.4
2005-09-08 07:11:15 51°23.158 2°49.691 350.8 13.4 345 17.2
2005-09-08 07:11:21 51°23.178 2°49.683 351.2 13.4 345 17.9
2005-09-08 07:11:26 51°23.196 2°49.675 351.2 13.4 346 18.2
2005-09-08 07:11:30 51°23.211 2°49.669 351.3 13.4 346 17.6
2005-09-08 07:11:35 51°23.23 2°49.661 351.7 13.4 345 15
2005-09-08 07:11:40 51°23.248 2°49.654 352.1 13.4 345 16.6
2005-09-08 07:11:46 51°23.268 2°49.645 351.7 13.4 345 16.9
2005-09-08 07:11:50 51°23.282 2°49.64 351.4 13.4 345 17.7
2005-09-08 07:11:56 51°23.304 2°49.631 351.5 13.4 345 18.3
2005-09-08 07:12:00 51°23.32 2°49.624 351.8 13.4 346 18.7
2005-09-08 07:12:05 51°23.336 2°49.617 352 13.3 346 19.2
2005-09-08 07:12:10 51°23.356 2°49.609 351.7 13.3 346 19.5
2005-09-08 07:12:16 51°23.375 2°49.6 351.4 13.3 346 19.7
2005-09-08 07:12:20 51°23.391 2°49.593 351 13.3 345 19.4
2005-09-08 07:12:25 51°23.409 2°49.586 350.8 13.4 345 19.5
2005-09-08 07:12:30 51°23.426 2°49.579 351 13.4 345 20
2005-09-08 07:12:36 51°23.447 2°49.57 351.4 13.4 345 20
2005-09-08 07:12:40 51°23.463 2°49.563 351.4 13.4 345 20
2005-09-08 07:12:45 51°23.479 2°49.556 351.2 13.4 345 20.1
2005-09-08 07:12:50 51°23.497 2°49.548 350.9 13.4 345 20.4
2005-09-08 07:12:56 51°23.518 2°49.538 350.6 13.4 344 20.5
2005-09-08 07:13:00 51°23.535 2°49.531 350.3 13.4 344 20.4
2005-09-08 07:13:05 51°23.553 2°49.524 351.2 13.3 346 20.6
2005-09-08 07:13:10 51°23.571 2°49.518 352.9 13.3 346 20.8
2005-09-08 07:13:15 51°23.589 2°49.513 354.2 13.3 348 21
2005-09-08 07:13:20 51°23.607 2°49.507 355.1 13.3 349 21.3
2005-09-08 07:13:26 51°23.627 2°49.502 355.6 13.3 350 21.8
2005-09-08 07:13:30 51°23.641 2°49.497 356.5 13.2 350 21.2
2005-09-08 07:13:35 51°23.661 2°49.492 356.9 13.2 351 21.8
2005-09-08 07:13:41 51°23.681 2°49.487 357.1 13.2 351 22.2
2005-09-08 07:13:46 51°23.699 2°49.482 357.2 13.2 351 22.5
2005-09-08 07:13:50 51°23.715 2°49.478 357.2 13.3 351 22.5
2005-09-08 07:13:56 51°23.735 2°49.473 357.2 13.3 351 22.5
2005-09-08 07:14:00 51°23.752 2°49.468 357 13.3 351 22.3
2005-09-08 07:14:05 51°23.77 2°49.463 356.5 13.3 350 22.4
2005-09-08 07:14:10 51°23.786 2°49.457 356.2 13.2 349 22.3
2005-09-08 07:14:16 51°23.808 2°49.451 355.8 13.2 349 22.1
2005-09-08 07:14:20 51°23.824 2°49.446 355.9 13.3 350 22.2
2005-09-08 07:14:25 51°23.84 2°49.441 356.3 13.3 350 22
2005-09-08 07:14:30 51°23.859 2°49.436 356.3 13.3 349 21.6
2005-09-08 07:14:36 51°23.88 2°49.43 356.3 13.3 349 21.6
2005-09-08 07:14:40 51°23.897 2°49.425 356.2 13.3 349 21.6
2005-09-08 07:14:45 51°23.913 2°49.42 356.2 13.3 349 21.8
2005-09-08 07:14:50 51°23.933 2°49.414 356 13.3 349 21.9
2005-09-08 07:14:56 51°23.953 2°49.407 355.9 13.3 349 21.8
2005-09-08 07:15:00 51°23.969 2°49.403 355.8 13.3 350 22.1
2005-09-08 07:15:06 51°23.989 2°49.397 356.1 13.3 350 22.1
2005-09-08 07:15:10 51°24.004 2°49.393 356.3 13.3 350 22.2
2005-09-08 07:15:15 51°24.024 2°49.387 356.8 13.3 350 22.2
2005-09-08 07:15:20 51°24.042 2°49.382 356.8 13.3 350 22.4
2005-09-08 07:15:25 51°24.06 2°49.377 357 13.3 350 22.4
2005-09-08 07:15:30 51°24.078 2°49.372 357.1 13.3 350 22.7
2005-09-08 07:15:35 51°24.096 2°49.368 357 13.2 350 22.5
2005-09-08 07:15:40 51°24.114 2°49.363 357 13.3 350 22.4
2005-09-08 07:15:46 51°24.134 2°49.358 357 13.3 351 22.4
2005-09-08 07:15:50 51°24.149 2°49.354 357.1 13.3 351 22.5
2005-09-08 07:15:56 51°24.171 2°49.348 357.2 13.3 351 22.9
2005-09-08 07:16:00 51°24.187 2°49.343 357 13.3 351 22.7
2005-09-08 07:16:06 51°24.207 2°49.338 356.8 13.2 351 22.6
2005-09-08 07:16:10 51°24.223 2°49.334 356.9 13.2 351 22.4
2005-09-08 07:16:16 51°24.243 2°49.329 357.4 13.2 351 22.3
2005-09-08 07:16:20 51°24.259 2°49.326 357.9 13.2 351 22.4
2005-09-08 07:16:25 51°24.278 2°49.321 358.5 13.3 352 22.6
2005-09-08 07:16:30 51°24.294 2°49.317 358.7 13.3 352 22.4
2005-09-08 07:16:36 51°24.316 2°49.312 358.3 13.3 352 22.5
2005-09-08 07:16:40 51°24.332 2°49.308 358.4 13.3 352 22.4
2005-09-08 07:16:44 51°24.347 2°49.305 358.2 13.3 351 22.1
2005-09-08 07:16:50 51°24.367 2°49.3 358.2 13.3 351 22.4
2005-09-08 07:16:56 51°24.389 2°49.295 358.3 13.3 351 22.2
2005-09-08 07:17:00 51°24.405 2°49.291 358.2 13.3 352 22.3
2005-09-08 07:17:05 51°24.424 2°49.287 358.2 13.4 351 22.1
2005-09-08 07:17:10 51°24.44 2°49.282 358 13.4 351 22.3
2005-09-08 07:17:16 51°24.462 2°49.277 357.8 13.3 351 22.3
2005-09-08 07:17:20 51°24.478 2°49.273 357.7 13.3 351 22.1
2005-09-08 07:17:25 51°24.497 2°49.269 358 13.3 352 22
2005-09-08 07:17:30 51°24.513 2°49.265 358.3 13.3 351 21.9
2005-09-08 07:17:35 51°24.533 2°49.26 358.1 13.3 351 21.9
2005-09-08 07:17:40 51°24.551 2°49.255 357.8 13.3 351 22
2005-09-08 07:17:46 51°24.571 2°49.25 357.8 13.3 351 22
2005-09-08 07:17:50 51°24.586 2°49.245 358.1 13.2 351 22
2005-09-08 07:17:55 51°24.605 2°49.237 355.4 13.3 347 21.8
2005-09-08 07:18:00 51°24.623 2°49.229 353.4 13.3 347 22
2005-09-08 07:18:05 51°24.639 2°49.221 351.7 13.4 344 21.9
2005-09-08 07:18:09 51°24.655 2°49.214 350.6 13.4 344 21.7
2005-09-08 07:18:15 51°24.677 2°49.203 349.7 13.4 343 22
2005-09-08 07:18:20 51°24.694 2°49.194 349.4 13.4 343 22.1
2005-09-08 07:18:26 51°24.714 2°49.184 349.1 13.4 342 21.8
2005-09-08 07:18:30 51°24.728 2°49.177 349 13.4 342 20.7
2005-09-08 07:18:36 51°24.75 2°49.166 348.9 13.4 342 21.3
2005-09-08 07:18:40 51°24.766 2°49.158 349.1 13.5 343 21.7
2005-09-08 07:18:44 51°24.78 2°49.15 349.1 13.5 342 21.9
2005-09-08 07:18:50 51°24.8 2°49.14 348.7 13.5 342 22.1
2005-09-08 07:18:56 51°24.821 2°49.128 347.7 13.5 342 22.3
2005-09-08 07:19:00 51°24.837 2°49.118 346.8 13.5 340 22.3
2005-09-08 07:19:05 51°24.852 2°49.109 346.3 13.5 340 22
2005-09-08 07:19:10 51°24.872 2°49.097 346.2 13.5 340 22.3
2005-09-08 07:19:15 51°24.889 2°49.087 345.6 13.6 339 22.1
2005-09-08 07:19:20 51°24.907 2°49.076 345.4 13.6 339 22.2
2005-09-08 07:19:24 51°24.921 2°49.067 345.3 13.6 339 22
2005-09-08 07:19:30 51°24.942 2°49.054 345.4 13.6 339 22.1
2005-09-08 07:19:36 51°24.961 2°49.043 345.6 13.6 340 22.1
2005-09-08 07:19:40 51°24.977 2°49.033 346 13.6 340 22
2005-09-08 07:19:46 51°24.997 2°49.022 346 13.6 340 22
2005-09-08 07:19:50 51°25.013 2°49.012 346.1 13.6 340 22
2005-09-08 07:19:56 51°25.032 2°49.001 346 13.6 340 22
2005-09-08 07:20:00 51°25.048 2°48.991 345.6 13.6 340 22
2005-09-08 07:20:06 51°25.067 2°48.98 345.7 13.6 340 22.6
2005-09-08 07:20:10 51°25.082 2°48.971 346 13.6 340 22.7
2005-09-08 07:20:16 51°25.103 2°48.959 346 13.6 340 22.8
2005-09-08 07:20:21 51°25.121 2°48.948 346.1 13.6 340 22.9
2005-09-08 07:20:25 51°25.136 2°48.941 346.2 13.7 340 23.1
2005-09-08 07:20:30 51°25.153 2°48.93 346.2 13.7 341 23.2
2005-09-08 07:20:35 51°25.173 2°48.92 346.3 13.6 341 23.3
2005-09-08 07:20:40 51°25.191 2°48.909 346.5 13.6 341 23.5
2005-09-08 07:20:46 51°25.21 2°48.898 346.3 13.6 340 23.6
2005-09-08 07:20:50 51°25.226 2°48.888 346.2 13.7 340 23.7
2005-09-08 07:20:56 51°25.246 2°48.877 345.6 13.7 340 23.8
2005-09-08 07:21:00 51°25.262 2°48.867 345.4 13.6 340 23.9
2005-09-08 07:21:05 51°25.278 2°48.857 345.6 13.6 339 24.1
2005-09-08 07:21:10 51°25.295 2°48.846 345.3 13.6 338 24.2
2005-09-08 07:21:16 51°25.316 2°48.833 344.7 13.6 338 24.7
2005-09-08 07:21:20 51°25.331 2°48.822 344.7 13.6 338 25.3
2005-09-08 07:21:24 51°25.345 2°48.813 344.7 13.5 338 25.4
2005-09-08 07:21:30 51°25.366 2°48.8 345.4 13.5 339 25.4
2005-09-08 07:21:36 51°25.385 2°48.789 345.7 13.5 339 25.4
2005-09-08 07:21:40 51°25.401 2°48.779 346 13.5 339 25.5
2005-09-08 07:21:46 51°25.42 2°48.767 346 13.5 339 25.3
2005-09-08 07:21:50 51°25.434 2°48.759 346.2 13.4 339 24.7
2005-09-08 07:21:56 51°25.455 2°48.746 346.2 13.4 339 24.4
2005-09-08 07:22:00 51°25.47 2°48.735 345.7 13.4 338 24.4
2005-09-08 07:22:05 51°25.486 2°48.725 344.9 13.5 338 24.5
2005-09-08 07:22:10 51°25.503 2°48.714 345 13.5 338 24.2
2005-09-08 07:22:15 51°25.522 2°48.701 343.9 13.5 336 24
2005-09-08 07:22:20 51°25.539 2°48.688 343.4 13.5 336 24
2005-09-08 07:22:26 51°25.558 2°48.675 342.6 13.5 336 23.9
2005-09-08 07:22:30 51°25.572 2°48.665 342.2 13.5 336 23.9
2005-09-08 07:22:35 51°25.59 2°48.651 342.2 13.5 336 23.9
2005-09-08 07:22:40 51°25.608 2°48.64 342.6 13.5 337 23.9
2005-09-08 07:22:46 51°25.627 2°48.627 343.7 13.5 337 23.9
2005-09-08 07:22:50 51°25.642 2°48.617 343.9 13.5 337 23.7
2005-09-08 07:22:55 51°25.66 2°48.606 344 13.5 338 23.7
2005-09-08 07:23:00 51°25.677 2°48.595 344.2 13.5 338 23.6
2005-09-08 07:23:05 51°25.692 2°48.585 344.4 13.2 338 23.6
2005-09-08 07:23:10 51°25.708 2°48.574 344 12.5 337 23.5
2005-09-08 07:23:16 51°25.726 2°48.561 343.6 12.1 337 23.5
2005-09-08 07:23:20 51°25.738 2°48.553 343.1 12.1 337 23.7
2005-09-08 07:23:24 51°25.749 2°48.546 343.3 12.1 337 23.5
2005-09-08 07:23:30 51°25.763 2°48.536 343.9 10.3 338 23.7
2005-09-08 07:23:35 51°25.777 2°48.528 344.9 9.8 339 23.6
2005-09-08 07:23:40 51°25.789 2°48.521 345.9 9.8 339 23.7
2005-09-08 07:23:45 51°25.801 2°48.515 347.2 9.5 340 23.6
2005-09-08 07:23:50 51°25.813 2°48.509 349.1 9.5 340 23.7
2005-09-08 07:23:56 51°25.826 2°48.503 350.5 9 343 23.6
2005-09-08 07:24:00 51°25.836 2°48.499 352.4 9 343 23.5
2005-09-08 07:24:05 51°25.848 2°48.495 353.8 9 343 23.5
2005-09-08 07:24:10 51°25.859 2°48.491 355.4 9 343 23.5
2005-09-08 07:24:15 51°25.869 2°48.486 354.8 8.3 345 23.3
2005-09-08 07:24:21 51°25.881 2°48.48 352.9 8.2 344 23.3
2005-09-08 07:24:25 51°25.89 2°48.475 350.5 8 342 23.2
2005-09-08 07:24:30 51°25.9 2°48.469 349 8 341 23.3
2005-09-08 07:24:35 51°25.911 2°48.462 347.6 8 340 23.3
2005-09-08 07:24:40 51°25.922 2°48.455 346.9 8 340 23.2
2005-09-08 07:24:45 51°25.932 2°48.449 346.2 7.9 338 23.2
2005-09-08 07:24:50 51°25.941 2°48.443 346.2 7.9 338 23.2
2005-09-08 07:24:55 51°25.952 2°48.436 346.7 7.8 340 23.3
2005-09-08 07:25:01 51°25.963 2°48.43 347.3 7.8 340 23.1
2005-09-08 07:25:05 51°25.97 2°48.426 348.4 7.1 341 23.1
2005-09-08 07:25:09 51°25.978 2°48.422 350.2 7.1 341 23.2
2005-09-08 07:25:16 51°25.988 2°48.418 352.1 6.4 344 23.3
2005-09-08 07:25:20 51°25.995 2°48.415 353.8 6.4 344 23
2005-09-08 07:25:25 51°26.001 2°48.413 355.1 5 347 23.3
2005-09-08 07:25:30 51°26.007 2°48.411 359 4.5 350 23.1
2005-09-08 07:25:36 51°26.013 2°48.41 2.6 4.2 351 23.3
2005-09-08 07:25:40 51°26.017 2°48.41 8.2 4.2 351 23.3
2005-09-08 07:25:45 51°26.02 2°48.409 14.5 2.9 356 23.2
2005-09-08 07:25:50 51°26.022 2°48.409 20.5 2.9 356 23.3
2005-09-08 07:25:56 51°26.024 2°48.409 25.8 2.9 356 23.3
2005-09-08 07:26:00 51°26.025 2°48.407 30.4 2.9 356 23.2
2005-09-08 07:26:04 51°26.025 2°48.405 35.2 1 275 23.2
2005-09-08 07:26:10 51°26.025 2°48.403 40.7 1.1 265 23.3
2005-09-08 07:26:15 51°26.025 2°48.4 44.5 1.1 265 23.1
2005-09-08 07:26:20 51°26.025 2°48.397 46.7 1.1 265 23.1
2005-09-08 07:26:26 51°26.025 2°48.395 48.3 1.1 265 23.3
2005-09-08 07:26:30 51°26.025 2°48.393 49.7 1.1 265 -999
2005-09-08 07:26:36 51°26.024 2°48.39 50.8 1.1 269 4.8
2005-09-08 07:26:40 51°26.024 2°48.388 52.2 1.1 271 -999
2005-09-08 07:26:46 51°26.024 2°48.385 53.5 1 271 -999
2005-09-08 07:26:50 51°26.025 2°48.383 54.4 1.1 273 -999
2005-09-08 07:26:56 51°26.025 2°48.381 55.2 1.1 273 6.3
2005-09-08 07:27:00 51°26.025 2°48.379 55.9 1 272 -999
2005-09-08 07:27:06 51°26.025 2°48.376 56.5 1 273 -999
2005-09-08 07:27:10 51°26.025 2°48.374 56.7 1 273 -999
2005-09-08 07:27:16 51°26.025 2°48.371 56.9 1 276 -999
2005-09-08 07:27:21 51°26.025 2°48.369 56.7 1 276 -999
2005-09-08 07:27:26 51°26.025 2°48.367 56.5 1 275 -999
2005-09-08 07:27:31 51°26.025 2°48.365 56.1 1 277 -999
2005-09-08 07:27:36 51°26.025 2°48.363 55.8 1 277 -999
2005-09-08 07:27:40 51°26.025 2°48.361 55.4 0.9 276 -999
2005-09-08 07:27:45 51°26.025 2°48.359 54.8 0.9 278 4.9
2005-09-08 07:27:50 51°26.025 2°48.357 54.4 0.9 278 4.9
2005-09-08 07:27:56 51°26.026 2°48.355 54.1 0.9 279 -999
2005-09-08 07:28:00 51°26.026 2°48.354 53.7 0.9 279 4.9
2005-09-08 07:28:06 51°26.026 2°48.352 53.3 0.9 278 4.8
2005-09-08 07:28:10 51°26.026 2°48.351 52.9 0.9 278 4.8
2005-09-08 07:28:16 51°26.026 2°48.348 52.7 0.8 278 4.8
2005-09-08 07:28:20 51°26.026 2°48.347 52.5 0.7 273 5
2005-09-08 07:28:26 51°26.027 2°48.345 52.3 0.8 280 4.9
2005-09-08 07:28:30 51°26.027 2°48.344 52 0.8 279 4.9
2005-09-08 07:28:36 51°26.027 2°48.342 51.7 0.8 279 23.3
2005-09-08 07:28:40 51°26.027 2°48.341 51.5 0.8 279 23.3
2005-09-08 07:28:46 51°26.027 2°48.339 51.3 0.7 279 23.3
2005-09-08 07:28:50 51°26.027 2°48.338 51.1 0.7 279 23.1
2005-09-08 07:28:56 51°26.027 2°48.336 50.9 0.7 277 23.2
2005-09-08 07:29:01 51°26.028 2°48.335 50.8 0.7 281 23.2
2005-09-08 07:29:05 51°26.028 2°48.333 50.8 0.7 281 23.3
2005-09-08 07:29:10 51°26.028 2°48.332 50.8 0.7 281 23.3
2005-09-08 07:29:15 51°26.028 2°48.33 50.7 0.7 280 23.2
2005-09-08 07:29:20 51°26.028 2°48.329 50.7 0.7 283 23.2
2005-09-08 07:29:26 51°26.028 2°48.327 50.7 0.6 282 23.2
2005-09-08 07:29:30 51°26.028 2°48.326 50.8 0.6 282 23.1
2005-09-08 07:29:36 51°26.029 2°48.324 50.6 0.6 282 23.1
2005-09-08 07:29:40 51°26.029 2°48.323 50.6 0.6 285 23.2
2005-09-08 07:29:46 51°26.029 2°48.322 50.4 0.6 285 23.4
2005-09-08 07:29:50 51°26.029 2°48.321 50.3 0.6 285 23.4
2005-09-08 07:29:56 51°26.029 2°48.319 50.1 0.6 285 23.3
2005-09-08 07:30:00 51°26.029 2°48.318 50 0.6 285 23.3
2005-09-08 07:30:05 51°26.03 2°48.317 49.8 0.6 287 23.2
2005-09-08 07:30:10 51°26.03 2°48.315 49.5 0.6 287 23.1
2005-09-08 07:30:16 51°26.03 2°48.314 49.3 0.6 288 23.3
2005-09-08 07:30:20 51°26.03 2°48.313 49.3 0.6 288 23.1
2005-09-08 07:30:24 51°26.031 2°48.312 49 0.6 290 23.1
2005-09-08 07:30:30 51°26.031 2°48.311 49.1 0.5 290 23
2005-09-08 07:30:35 51°26.031 2°48.309 49 0.5 290 23.1
2005-09-08 07:30:40 51°26.031 2°48.308 49 0.5 289 22.9
2005-09-08 07:30:44 51°26.031 2°48.307 49 0.5 289 23
2005-09-08 07:30:50 51°26.032 2°48.306 49 0.5 289 23.2
2005-09-08 07:30:56 51°26.032 2°48.305 49 0.6 290 23.2
2005-09-08 07:31:00 51°26.032 2°48.304 48.8 0.5 289 23.2
2005-09-08 07:31:05 51°26.033 2°48.303 48.6 0.6 292 23.2
2005-09-08 07:31:10 51°26.033 2°48.302 48.4 0.5 296 23.1
2005-09-08 07:31:16 51°26.034 2°48.301 48.2 0.5 320 23.2
2005-09-08 07:31:20 51°26.034 2°48.301 47.8 0.5 337 23.2
2005-09-08 07:31:24 51°26.035 2°48.301 47.3 0.7 350 23.2
2005-09-08 07:31:30 51°26.037 2°48.301 47.2 0.7 350 23.2
2005-09-08 07:31:35 51°26.039 2°48.303 47.1 0.7 350 23
2005-09-08 07:31:40 51°26.041 2°48.305 47.6 1.7 26 23.1
2005-09-08 07:31:46 51°26.043 2°48.307 48.3 1.8 27 23
2005-09-08 07:31:51 51°26.046 2°48.311 50 2.1 35 23.2
2005-09-08 07:31:56 51°26.048 2°48.314 53.5 2.2 36 22.9
2005-09-08 07:32:00 51°26.05 2°48.318 58.1 2.2 36 23.1
2005-09-08 07:32:06 51°26.052 2°48.324 63.8 2.6 56 22.5
2005-09-08 07:32:10 51°26.054 2°48.328 69.6 2.6 63 22.7
2005-09-08 07:32:16 51°26.055 2°48.335 75.9 2.6 63 22.2
2005-09-08 07:32:20 51°26.055 2°48.341 82.3 2.8 79 21.4
2005-09-08 07:32:26 51°26.055 2°48.348 88.7 2.8 79 21.3
2005-09-08 07:32:30 51°26.055 2°48.353 95 2.8 79 21.2
2005-09-08 07:32:36 51°26.054 2°48.36 101.3 2.8 79 21.1
2005-09-08 07:32:40 51°26.052 2°48.366 107.5 2.9 107 21.2
2005-09-08 07:32:45 51°26.05 2°48.371 113.7 3 119 21.3
2005-09-08 07:32:50 51°26.048 2°48.377 119.8 3.1 125 21.7
2005-09-08 07:32:55 51°26.044 2°48.382 125.9 3.2 128 22.2
2005-09-08 07:33:00 51°26.041 2°48.387 131.6 3.2 128 22.4
2005-09-08 07:33:06 51°26.036 2°48.393 136.3 3.2 128 22.6
2005-09-08 07:33:10 51°26.033 2°48.396 140 3.7 146 22.9
2005-09-08 07:33:16 51°26.027 2°48.401 143.5 3.7 146 23.2
2005-09-08 07:33:20 51°26.023 2°48.405 146.6 3.7 146 23.2
2005-09-08 07:33:24 51°26.019 2°48.409 148.3 4.1 150 23.1
2005-09-08 07:33:30 51°26.013 2°48.414 148.6 4.2 152 23.1
2005-09-08 07:33:35 51°26.008 2°48.419 148.3 4.2 152 23.3
2005-09-08 07:33:40 51°26.002 2°48.425 147.4 4.2 152 23.2
2005-09-08 07:33:46 51°25.997 2°48.431 146.2 4.2 152 23.2
2005-09-08 07:33:50 51°25.993 2°48.436 144 4.3 144 23.3
2005-09-08 07:33:55 51°25.989 2°48.442 139.1 4.2 140 23.3
2005-09-08 07:34:01 51°25.985 2°48.449 132.3 4.2 140 23
2005-09-08 07:34:06 51°25.983 2°48.454 127.3 4.2 140 23.1
2005-09-08 07:34:10 51°25.981 2°48.458 124.7 4.2 140 23.1
2005-09-08 07:34:15 51°25.979 2°48.462 122 2.2 122 23.1
2005-09-08 07:34:20 51°25.978 2°48.465 117.1 2.2 122 23.1
2005-09-08 07:34:26 51°25.977 2°48.468 111.7 1.1 118 23
2005-09-08 07:34:30 51°25.977 2°48.469 106.2 1.1 118 23.1
2005-09-08 07:34:35 51°25.976 2°48.47 101.8 1.1 118 23.1
2005-09-08 07:34:41 51°25.976 2°48.472 99.4 0.6 109 23.1
2005-09-08 07:34:46 51°25.976 2°48.473 95.9 0.6 105 23.2
2005-09-08 07:34:50 51°25.976 2°48.474 93.2 0.6 105 23.4
2005-09-08 07:34:56 51°25.976 2°48.476 90.6 0.6 94 23.4
2005-09-08 07:35:00 51°25.976 2°48.477 87.8 0.6 85 23.2
2005-09-08 07:35:05 51°25.976 2°48.478 86.1 0.7 80 23.1
2005-09-08 07:35:10 51°25.977 2°48.48 83.4 0.7 72 23.1
2005-09-08 07:35:16 51°25.977 2°48.482 81.7 0.7 74 23.2
2005-09-08 07:35:20 51°25.977 2°48.483 80.4 0.7 66 23.3
2005-09-08 07:35:26 51°25.978 2°48.484 78.9 0.7 66 23.2
2005-09-08 07:35:31 51°25.978 2°48.485 78.1 0.6 65 23
2005-09-08 07:35:36 51°25.978 2°48.486 77.3 0.6 56 23
2005-09-08 07:35:40 51°25.979 2°48.487 76.7 0.6 56 23.1
2005-09-08 07:35:45 51°25.979 2°48.489 76.3 0.6 59 23.3
2005-09-08 07:35:49 51°25.98 2°48.489 76.1 0.6 59 23.4
2005-09-08 07:35:56 51°25.98 2°48.491 75.6 0.6 49 23.2
2005-09-08 07:36:01 51°25.981 2°48.492 75.1 0.6 49 23
2005-09-08 07:36:06 51°25.982 2°48.492 74.8 0.5 44 23
2005-09-08 07:36:10 51°25.982 2°48.493 74.3 0.5 44 23.2
2005-09-08 07:36:16 51°25.983 2°48.494 73.8 0.5 44 23.3
2005-09-08 07:36:20 51°25.983 2°48.495 73.4 0.5 44 23.3
2005-09-08 07:36:26 51°25.983 2°48.496 73 0.5 41 23.1
2005-09-08 07:36:30 51°25.984 2°48.496 72.5 0.5 41 23
2005-09-08 07:36:35 51°25.985 2°48.497 72.1 0.5 35 23.1
2005-09-08 07:36:40 51°25.985 2°48.498 71.8 0.5 35 23.2
2005-09-08 07:36:46 51°25.986 2°48.498 71.4 0.5 31 23.3
2005-09-08 07:36:50 51°25.986 2°48.498 71.1 0.5 31 23.2
2005-09-08 07:36:55 51°25.987 2°48.499 70.6 0.5 33 23.1
2005-09-08 07:37:00 51°25.987 2°48.5 70.4 0.5 29 23
2005-09-08 07:37:06 51°25.988 2°48.5 70 0.5 29 22.9
2005-09-08 07:37:10 51°25.989 2°48.501 69.6 0.5 22 23
2005-09-08 07:37:15 51°25.989 2°48.501 69.2 0.5 23 23
2005-09-08 07:37:20 51°25.989 2°48.501 68.9 0.5 23 23.1
2005-09-08 07:37:25 51°25.99 2°48.502 68.6 0.4 23 23.1
2005-09-08 07:37:30 51°25.991 2°48.502 68.2 0.4 23 23.1
2005-09-08 07:37:36 51°25.991 2°48.502 67.8 0.4 23 23.1
2005-09-08 07:37:40 51°25.992 2°48.503 67.5 0.4 23 22.9
2005-09-08 07:37:45 51°25.992 2°48.503 67.1 0.4 13 22.9
2005-09-08 07:37:50 51°25.993 2°48.503 66.9 0.4 13 22.9
2005-09-08 07:37:55 51°25.994 2°48.504 66.6 0.4 13 23
2005-09-08 07:38:01 51°25.994 2°48.504 66.2 0.4 11 23.1
2005-09-08 07:38:05 51°25.995 2°48.504 66.1 0.5 8 23.1
2005-09-08 07:38:10 51°25.995 2°48.504 65.8 0.5 8 23